sensor_id;sensor_type;location;lat;lon;timestamp;pressure;altitude;pressure_sealevel;temperature;humidity
58092;BME280;43896;48.178;11.578;2022-07-23T00:00:52;95882.38;;;25.67;48.77
58092;BME280;43896;48.178;11.578;2022-07-23T00:03:17;95889.97;;;25.70;48.14
58092;BME280;43896;48.178;11.578;2022-07-23T00:05:42;95877.72;;;25.57;48.05
58092;BME280;43896;48.178;11.578;2022-07-23T00:08:08;95875.72;;;25.47;48.18
58092;BME280;43896;48.178;11.578;2022-07-23T00:10:33;95882.66;;;25.65;48.33
58092;BME280;43896;48.178;11.578;2022-07-23T00:12:59;95888.66;;;25.72;47.71
58092;BME280;43896;48.178;11.578;2022-07-23T00:15:24;95894.94;;;25.56;47.61
58092;BME280;43896;48.178;11.578;2022-07-23T00:17:50;95886.53;;;25.74;47.03
58092;BME280;43896;48.178;11.578;2022-07-23T00:20:16;95870.25;;;25.64;47.03
58092;BME280;43896;48.178;11.578;2022-07-23T00:22:49;95879.38;;;25.63;46.26
58092;BME280;43896;48.178;11.578;2022-07-23T00:25:15;95885.72;;;25.74;46.35
58092;BME280;43896;48.178;11.578;2022-07-23T00:27:41;95878.41;;;25.69;45.95
58092;BME280;43896;48.178;11.578;2022-07-23T00:30:07;95885.19;;;25.77;45.85
58092;BME280;43896;48.178;11.578;2022-07-23T00:32:32;95891.91;;;25.74;45.17
58092;BME280;43896;48.178;11.578;2022-07-23T00:35:09;95902.50;;;25.81;44.75
58092;BME280;43896;48.178;11.578;2022-07-23T00:37:34;95894.84;;;25.73;45.34
58092;BME280;43896;48.178;11.578;2022-07-23T00:40:00;95895.34;;;25.70;46.07
58092;BME280;43896;48.178;11.578;2022-07-23T00:42:25;95879.09;;;25.59;46.04
58092;BME280;43896;48.178;11.578;2022-07-23T00:44:50;95902.09;;;25.67;46.23
58092;BME280;43896;48.178;11.578;2022-07-23T00:47:16;95920.16;;;25.72;46.70
58092;BME280;43896;48.178;11.578;2022-07-23T00:49:41;95917.16;;;25.68;46.59
58092;BME280;43896;48.178;11.578;2022-07-23T00:52:06;95919.72;;;25.58;47.24
58092;BME280;43896;48.178;11.578;2022-07-23T00:54:32;95921.63;;;25.57;47.00
58092;BME280;43896;48.178;11.578;2022-07-23T00:56:57;95905.84;;;25.44;47.77
58092;BME280;43896;48.178;11.578;2022-07-23T00:59:23;95911.56;;;25.25;47.44
58092;BME280;43896;48.178;11.578;2022-07-23T01:01:48;95941.47;;;25.29;48.31
58092;BME280;43896;48.178;11.578;2022-07-23T01:04:15;95942.34;;;25.35;48.10
58092;BME280;43896;48.178;11.578;2022-07-23T01:06:43;95966.91;;;25.21;47.89
58092;BME280;43896;48.178;11.578;2022-07-23T01:09:09;95962.09;;;25.06;48.17
58092;BME280;43896;48.178;11.578;2022-07-23T01:11:35;96014.06;;;25.24;48.13
58092;BME280;43896;48.178;11.578;2022-07-23T01:14:16;96006.47;;;25.21;48.36
58092;BME280;43896;48.178;11.578;2022-07-23T01:16:44;96010.97;;;25.15;48.76
58092;BME280;43896;48.178;11.578;2022-07-23T01:19:10;96029.81;;;24.98;49.38
58092;BME280;43896;48.178;11.578;2022-07-23T01:21:38;96046.03;;;24.86;50.32
58092;BME280;43896;48.178;11.578;2022-07-23T01:24:04;96072.34;;;24.84;50.84
58092;BME280;43896;48.178;11.578;2022-07-23T01:26:30;96084.50;;;24.87;50.03
58092;BME280;43896;48.178;11.578;2022-07-23T01:28:56;96097.56;;;24.66;48.78
58092;BME280;43896;48.178;11.578;2022-07-23T01:31:21;96127.06;;;24.49;48.08
58092;BME280;43896;48.178;11.578;2022-07-23T01:33:47;96165.13;;;24.29;48.83
58092;BME280;43896;48.178;11.578;2022-07-23T01:36:13;96157.47;;;23.98;50.89
58092;BME280;43896;48.178;11.578;2022-07-23T01:38:38;96178.31;;;23.48;52.70
58092;BME280;43896;48.178;11.578;2022-07-23T01:41:03;96156.00;;;23.36;53.49
58092;BME280;43896;48.178;11.578;2022-07-23T01:43:29;96135.84;;;23.03;53.33
58092;BME280;43896;48.178;11.578;2022-07-23T01:45:55;96085.31;;;22.76;55.17
58092;BME280;43896;48.178;11.578;2022-07-23T01:48:20;96079.13;;;22.45;57.22
58092;BME280;43896;48.178;11.578;2022-07-23T01:50:47;96088.28;;;22.19;59.37
58092;BME280;43896;48.178;11.578;2022-07-23T01:53:15;96075.88;;;22.25;61.35
58092;BME280;43896;48.178;11.578;2022-07-23T01:55:41;96055.13;;;22.02;61.38
58092;BME280;43896;48.178;11.578;2022-07-23T01:58:07;96060.34;;;21.97;61.96
58092;BME280;43896;48.178;11.578;2022-07-23T02:00:32;96079.63;;;21.87;63.44
58092;BME280;43896;48.178;11.578;2022-07-23T02:02:57;96077.16;;;21.85;63.23
58092;BME280;43896;48.178;11.578;2022-07-23T02:05:26;96059.81;;;21.69;63.76
58092;BME280;43896;48.178;11.578;2022-07-23T02:07:54;96067.56;;;21.59;63.89
58092;BME280;43896;48.178;11.578;2022-07-23T02:10:20;96059.97;;;21.75;64.41
58092;BME280;43896;48.178;11.578;2022-07-23T02:12:45;96048.97;;;21.64;63.86
58092;BME280;43896;48.178;11.578;2022-07-23T02:15:11;96104.66;;;21.74;64.67
58092;BME280;43896;48.178;11.578;2022-07-23T02:17:36;96091.94;;;21.69;65.50
58092;BME280;43896;48.178;11.578;2022-07-23T02:20:02;96085.34;;;21.28;67.55
58092;BME280;43896;48.178;11.578;2022-07-23T02:22:28;96109.84;;;21.25;68.11
58092;BME280;43896;48.178;11.578;2022-07-23T02:24:59;96105.09;;;21.27;68.55
58092;BME280;43896;48.178;11.578;2022-07-23T02:38:03;96019.78;;;20.69;72.54
58092;BME280;43896;48.178;11.578;2022-07-23T02:40:49;96005.13;;;20.78;72.69
58092;BME280;43896;48.178;11.578;2022-07-23T02:44:08;95965.56;;;20.87;72.68
58092;BME280;43896;48.178;11.578;2022-07-23T02:46:27;95993.47;;;21.16;71.94
58092;BME280;43896;48.178;11.578;2022-07-23T02:52:49;96016.72;;;21.15;71.67
58092;BME280;43896;48.178;11.578;2022-07-23T02:55:33;95993.66;;;20.71;71.82
58092;BME280;43896;48.178;11.578;2022-07-23T02:58:13;96005.16;;;20.71;72.99
58092;BME280;43896;48.178;11.578;2022-07-23T03:00:41;96030.25;;;20.95;71.30
58092;BME280;43896;48.178;11.578;2022-07-23T03:03:17;96041.13;;;21.01;73.08
58092;BME280;43896;48.178;11.578;2022-07-23T03:05:53;96056.28;;;21.07;72.69
58092;BME280;43896;48.178;11.578;2022-07-23T03:08:41;96071.19;;;20.96;72.04
58092;BME280;43896;48.178;11.578;2022-07-23T03:11:18;96100.63;;;20.96;71.35
58092;BME280;43896;48.178;11.578;2022-07-23T03:14:07;96084.78;;;20.94;69.67
58092;BME280;43896;48.178;11.578;2022-07-23T03:19:36;96098.47;;;21.30;69.34
58092;BME280;43896;48.178;11.578;2022-07-23T03:22:08;96069.41;;;21.15;70.27
58092;BME280;43896;48.178;11.578;2022-07-23T03:27:53;96094.59;;;21.26;70.70
58092;BME280;43896;48.178;11.578;2022-07-23T03:30:24;96046.41;;;21.07;69.64
58092;BME280;43896;48.178;11.578;2022-07-23T03:32:55;96054.09;;;21.22;69.98
58092;BME280;43896;48.178;11.578;2022-07-23T03:35:29;96057.78;;;21.03;69.87
58092;BME280;43896;48.178;11.578;2022-07-23T03:38:02;96034.41;;;20.91;71.20
58092;BME280;43896;48.178;11.578;2022-07-23T03:40:37;95981.78;;;20.67;70.53
58092;BME280;43896;48.178;11.578;2022-07-23T03:43:34;95987.00;;;21.05;68.23
58092;BME280;43896;48.178;11.578;2022-07-23T03:46:10;95980.16;;;21.28;69.00
58092;BME280;43896;48.178;11.578;2022-07-23T03:48:47;95966.66;;;21.23;71.16
58092;BME280;43896;48.178;11.578;2022-07-23T03:51:26;95980.84;;;21.23;70.44
58092;BME280;43896;48.178;11.578;2022-07-23T03:54:09;96008.06;;;21.39;69.04
58092;BME280;43896;48.178;11.578;2022-07-23T03:56:52;96001.22;;;21.43;70.26
58092;BME280;43896;48.178;11.578;2022-07-23T03:59:27;95986.94;;;21.30;70.44
58092;BME280;43896;48.178;11.578;2022-07-23T04:01:59;96007.66;;;21.35;71.67
58092;BME280;43896;48.178;11.578;2022-07-23T04:04:32;95992.16;;;21.25;70.89
58092;BME280;43896;48.178;11.578;2022-07-23T04:07:05;95973.34;;;21.13;72.12
58092;BME280;43896;48.178;11.578;2022-07-23T04:09:34;95967.09;;;21.01;70.54
58092;BME280;43896;48.178;11.578;2022-07-23T04:12:22;95990.19;;;21.14;71.27
58092;BME280;43896;48.178;11.578;2022-07-23T04:18:11;95966.94;;;21.14;68.28
58092;BME280;43896;48.178;11.578;2022-07-23T04:20:55;95971.94;;;21.29;67.07
58092;BME280;43896;48.178;11.578;2022-07-23T04:23:32;95974.53;;;21.36;67.15
58092;BME280;43896;48.178;11.578;2022-07-23T04:26:00;95955.34;;;21.21;69.20
58092;BME280;43896;48.178;11.578;2022-07-23T04:28:31;95947.56;;;21.19;70.35
58092;BME280;43896;48.178;11.578;2022-07-23T04:31:29;95936.41;;;21.22;68.78
58092;BME280;43896;48.178;11.578;2022-07-23T04:37:07;95937.16;;;21.29;68.52
58092;BME280;43896;48.178;11.578;2022-07-23T04:39:58;95931.38;;;21.32;69.54
58092;BME280;43896;48.178;11.578;2022-07-23T04:42:33;95942.56;;;21.41;70.53
58092;BME280;43896;48.178;11.578;2022-07-23T04:45:10;95934.91;;;21.26;70.57
58092;BME280;43896;48.178;11.578;2022-07-23T04:47:55;95954.25;;;21.28;71.36
58092;BME280;43896;48.178;11.578;2022-07-23T04:50:24;95956.00;;;21.16;73.05
58092;BME280;43896;48.178;11.578;2022-07-23T04:53:02;95942.59;;;21.04;72.47
58092;BME280;43896;48.178;11.578;2022-07-23T04:55:30;95962.13;;;21.23;71.22
58092;BME280;43896;48.178;11.578;2022-07-23T04:58:06;95943.78;;;21.27;71.01
58092;BME280;43896;48.178;11.578;2022-07-23T05:00:49;95940.78;;;21.35;72.17
58092;BME280;43896;48.178;11.578;2022-07-23T05:09:15;95932.25;;;21.26;70.21
58092;BME280;43896;48.178;11.578;2022-07-23T05:11:57;95932.47;;;21.25;67.11
58092;BME280;43896;48.178;11.578;2022-07-23T05:14:25;95917.63;;;21.29;68.24
58092;BME280;43896;48.178;11.578;2022-07-23T05:16:51;95935.34;;;21.42;67.98
58092;BME280;43896;48.178;11.578;2022-07-23T05:19:26;95919.94;;;21.44;69.56
58092;BME280;43896;48.178;11.578;2022-07-23T05:21:52;95925.25;;;21.62;69.05
58092;BME280;43896;48.178;11.578;2022-07-23T05:24:18;95932.22;;;21.82;69.67
58092;BME280;43896;48.178;11.578;2022-07-23T05:26:43;95932.38;;;21.87;67.85
58092;BME280;43896;48.178;11.578;2022-07-23T05:29:08;95936.22;;;21.91;66.88
58092;BME280;43896;48.178;11.578;2022-07-23T05:31:34;95948.22;;;22.00;67.08
58092;BME280;43896;48.178;11.578;2022-07-23T05:33:59;95952.56;;;22.01;63.68
58092;BME280;43896;48.178;11.578;2022-07-23T05:36:24;95949.09;;;22.13;63.28
58092;BME280;43896;48.178;11.578;2022-07-23T05:38:52;95952.94;;;22.17;62.62
58092;BME280;43896;48.178;11.578;2022-07-23T05:41:17;95951.66;;;22.07;61.46
58092;BME280;43896;48.178;11.578;2022-07-23T05:43:42;95956.56;;;22.22;63.29
58092;BME280;43896;48.178;11.578;2022-07-23T05:46:08;95957.41;;;22.23;62.20
58092;BME280;43896;48.178;11.578;2022-07-23T05:48:33;95959.44;;;22.39;62.24
58092;BME280;43896;48.178;11.578;2022-07-23T05:50:59;95964.25;;;22.49;61.64
58092;BME280;43896;48.178;11.578;2022-07-23T05:53:24;95982.44;;;22.47;60.40
58092;BME280;43896;48.178;11.578;2022-07-23T05:55:50;95981.72;;;22.52;62.63
58092;BME280;43896;48.178;11.578;2022-07-23T06:01:59;95980.78;;;22.46;61.64
58092;BME280;43896;48.178;11.578;2022-07-23T06:04:25;95992.00;;;22.55;61.81
58092;BME280;43896;48.178;11.578;2022-07-23T06:06:50;95978.34;;;22.56;60.13
58092;BME280;43896;48.178;11.578;2022-07-23T06:09:16;95993.06;;;22.65;61.36
58092;BME280;43896;48.178;11.578;2022-07-23T06:11:41;95973.34;;;22.60;62.89
58092;BME280;43896;48.178;11.578;2022-07-23T06:14:07;95966.47;;;22.52;63.57
58092;BME280;43896;48.178;11.578;2022-07-23T06:16:32;95963.41;;;22.48;61.19
58092;BME280;43896;48.178;11.578;2022-07-23T06:18:57;95984.88;;;22.60;62.97
58092;BME280;43896;48.178;11.578;2022-07-23T06:21:23;95965.63;;;22.52;62.02
58092;BME280;43896;48.178;11.578;2022-07-23T06:23:49;95948.03;;;22.44;63.96
58092;BME280;43896;48.178;11.578;2022-07-23T06:26:14;95972.38;;;22.42;60.37
58092;BME280;43896;48.178;11.578;2022-07-23T06:28:39;95948.59;;;22.34;60.79
58092;BME280;43896;48.178;11.578;2022-07-23T06:31:05;95941.25;;;22.29;61.16
58092;BME280;43896;48.178;11.578;2022-07-23T06:33:30;95907.63;;;22.15;62.11
58092;BME280;43896;48.178;11.578;2022-07-23T06:35:55;95902.56;;;21.83;62.35
58092;BME280;43896;48.178;11.578;2022-07-23T06:38:21;95924.59;;;21.97;61.82
58092;BME280;43896;48.178;11.578;2022-07-23T06:40:46;95939.97;;;21.71;62.58
58092;BME280;43896;48.178;11.578;2022-07-23T06:43:13;95963.25;;;22.01;62.78
58092;BME280;43896;48.178;11.578;2022-07-23T06:45:38;95974.84;;;22.14;62.33
58092;BME280;43896;48.178;11.578;2022-07-23T06:48:04;95997.84;;;22.03;61.35
58092;BME280;43896;48.178;11.578;2022-07-23T06:50:29;96013.41;;;22.24;61.87
58092;BME280;43896;48.178;11.578;2022-07-23T06:52:54;96027.47;;;22.38;62.08
58092;BME280;43896;48.178;11.578;2022-07-23T06:55:20;96008.19;;;22.18;61.48
58092;BME280;43896;48.178;11.578;2022-07-23T06:57:45;96020.63;;;22.42;61.33
58092;BME280;43896;48.178;11.578;2022-07-23T07:00:11;96030.69;;;22.59;60.97
58092;BME280;43896;48.178;11.578;2022-07-23T07:02:39;96032.59;;;22.70;60.29
58092;BME280;43896;48.178;11.578;2022-07-23T07:05:25;96021.84;;;22.70;59.41
58092;BME280;43896;48.178;11.578;2022-07-23T07:08:04;96044.63;;;22.91;59.98
58092;BME280;43896;48.178;11.578;2022-07-23T07:10:30;96050.81;;;22.92;59.74
58092;BME280;43896;48.178;11.578;2022-07-23T07:12:58;96029.13;;;22.81;60.13
58092;BME280;43896;48.178;11.578;2022-07-23T07:15:24;96042.66;;;22.87;59.77
58092;BME280;43896;48.178;11.578;2022-07-23T07:17:49;96028.53;;;22.91;60.67
58092;BME280;43896;48.178;11.578;2022-07-23T07:20:14;96033.75;;;22.74;60.67
58092;BME280;43896;48.178;11.578;2022-07-23T07:22:40;96022.13;;;22.80;60.67
58092;BME280;43896;48.178;11.578;2022-07-23T07:25:06;96027.72;;;22.91;60.71
58092;BME280;43896;48.178;11.578;2022-07-23T07:27:31;96016.66;;;22.87;61.44
58092;BME280;43896;48.178;11.578;2022-07-23T07:29:57;96033.53;;;22.88;61.66
58092;BME280;43896;48.178;11.578;2022-07-23T07:32:22;96014.84;;;22.69;61.40
58092;BME280;43896;48.178;11.578;2022-07-23T07:34:47;96028.28;;;22.81;62.10
58092;BME280;43896;48.178;11.578;2022-07-23T07:37:13;96025.19;;;22.54;62.47
58092;BME280;43896;48.178;11.578;2022-07-23T07:39:38;96034.03;;;22.42;63.81
58092;BME280;43896;48.178;11.578;2022-07-23T07:42:03;96037.25;;;22.33;63.25
58092;BME280;43896;48.178;11.578;2022-07-23T07:44:29;96036.78;;;22.36;63.78
58092;BME280;43896;48.178;11.578;2022-07-23T07:46:54;96055.59;;;22.47;64.33
58092;BME280;43896;48.178;11.578;2022-07-23T07:49:19;96049.88;;;22.44;64.33
58092;BME280;43896;48.178;11.578;2022-07-23T07:51:45;96053.09;;;22.34;63.95
58092;BME280;43896;48.178;11.578;2022-07-23T07:54:14;96059.53;;;22.33;63.78
58092;BME280;43896;48.178;11.578;2022-07-23T07:56:40;96062.44;;;22.43;64.40
58092;BME280;43896;48.178;11.578;2022-07-23T07:59:06;96066.50;;;22.34;64.02
58092;BME280;43896;48.178;11.578;2022-07-23T08:01:31;96057.91;;;22.44;64.51
58092;BME280;43896;48.178;11.578;2022-07-23T08:03:56;96062.34;;;22.50;63.90
58092;BME280;43896;48.178;11.578;2022-07-23T08:06:22;96067.84;;;22.55;63.50
58092;BME280;43896;48.178;11.578;2022-07-23T08:08:48;96066.13;;;22.61;63.74
58092;BME280;43896;48.178;11.578;2022-07-23T08:11:13;96058.00;;;22.68;63.21
58092;BME280;43896;48.178;11.578;2022-07-23T08:13:38;96043.09;;;22.41;63.22
58092;BME280;43896;48.178;11.578;2022-07-23T08:16:04;96040.78;;;22.45;63.56
58092;BME280;43896;48.178;11.578;2022-07-23T08:18:29;96052.69;;;22.49;64.26
58092;BME280;43896;48.178;11.578;2022-07-23T08:20:55;96054.22;;;22.57;63.85
58092;BME280;43896;48.178;11.578;2022-07-23T08:23:20;96067.75;;;22.62;64.14
58092;BME280;43896;48.178;11.578;2022-07-23T08:25:46;96063.47;;;22.61;64.41
58092;BME280;43896;48.178;11.578;2022-07-23T08:28:13;96066.53;;;22.76;64.41
58092;BME280;43896;48.178;11.578;2022-07-23T08:30:40;96060.56;;;22.74;64.46
58092;BME280;43896;48.178;11.578;2022-07-23T08:33:10;96066.31;;;22.90;63.34
58092;BME280;43896;48.178;11.578;2022-07-23T08:35:47;96075.31;;;22.95;63.85
58092;BME280;43896;48.178;11.578;2022-07-23T08:38:15;96056.31;;;22.97;62.75
58092;BME280;43896;48.178;11.578;2022-07-23T08:40:43;96060.03;;;22.96;62.71
58092;BME280;43896;48.178;11.578;2022-07-23T08:43:18;96055.47;;;22.96;62.31
58092;BME280;43896;48.178;11.578;2022-07-23T08:45:46;96067.38;;;22.89;61.50
58092;BME280;43896;48.178;11.578;2022-07-23T08:48:14;96049.00;;;22.62;62.67
58092;BME280;43896;48.178;11.578;2022-07-23T08:50:43;96051.00;;;22.66;61.88
58092;BME280;43896;48.178;11.578;2022-07-23T08:53:09;96047.06;;;22.93;62.15
58092;BME280;43896;48.178;11.578;2022-07-23T08:55:34;96055.69;;;22.95;59.62
58092;BME280;43896;48.178;11.578;2022-07-23T08:58:00;96063.91;;;23.12;60.39
58092;BME280;43896;48.178;11.578;2022-07-23T09:00:26;96066.63;;;23.24;59.62
58092;BME280;43896;48.178;11.578;2022-07-23T09:02:51;96098.50;;;23.44;59.51
58092;BME280;43896;48.178;11.578;2022-07-23T09:05:17;96103.50;;;23.64;59.77
58092;BME280;43896;48.178;11.578;2022-07-23T09:10:54;96121.03;;;24.02;59.40
58092;BME280;43896;48.178;11.578;2022-07-23T09:13:31;96128.81;;;24.15;59.75
58092;BME280;43896;48.178;11.578;2022-07-23T09:16:43;96114.13;;;24.06;60.52
58092;BME280;43896;48.178;11.578;2022-07-23T09:18:53;96129.75;;;24.21;60.01
58092;BME280;43896;48.178;11.578;2022-07-23T09:21:21;96115.13;;;24.17;58.43
58092;BME280;43896;48.178;11.578;2022-07-23T09:26:28;96121.34;;;24.46;58.36
58092;BME280;43896;48.178;11.578;2022-07-23T09:29:03;96119.22;;;24.60;56.71
58092;BME280;43896;48.178;11.578;2022-07-23T09:34:13;96119.13;;;24.83;57.78
58092;BME280;43896;48.178;11.578;2022-07-23T09:36:40;96123.13;;;24.98;57.35
58092;BME280;43896;48.178;11.578;2022-07-23T09:39:06;96123.44;;;25.30;55.70
58092;BME280;43896;48.178;11.578;2022-07-23T09:41:43;96120.25;;;25.84;55.37
58092;BME280;43896;48.178;11.578;2022-07-23T09:44:11;96122.94;;;25.84;54.39
58092;BME280;43896;48.178;11.578;2022-07-23T09:46:36;96118.91;;;26.26;53.63
58092;BME280;43896;48.178;11.578;2022-07-23T09:49:11;96120.84;;;26.52;54.58
58092;BME280;43896;48.178;11.578;2022-07-23T09:51:45;96117.38;;;26.79;51.94
58092;BME280;43896;48.178;11.578;2022-07-23T09:54:26;96109.38;;;26.89;54.06
58092;BME280;43896;48.178;11.578;2022-07-23T09:56:53;96114.44;;;27.08;52.37
58092;BME280;43896;48.178;11.578;2022-07-23T09:59:23;96110.34;;;27.33;50.66
58092;BME280;43896;48.178;11.578;2022-07-23T10:01:50;96093.44;;;27.47;49.28
58092;BME280;43896;48.178;11.578;2022-07-23T10:04:17;96089.53;;;27.71;51.00
58092;BME280;43896;48.178;11.578;2022-07-23T10:06:43;96108.22;;;27.77;49.55
58092;BME280;43896;48.178;11.578;2022-07-23T10:09:15;96101.56;;;27.53;49.15
58092;BME280;43896;48.178;11.578;2022-07-23T10:11:41;96093.50;;;27.25;49.70
58092;BME280;43896;48.178;11.578;2022-07-23T10:14:07;96084.84;;;27.23;47.58
58092;BME280;43896;48.178;11.578;2022-07-23T10:16:33;96085.66;;;27.56;45.62
58092;BME280;43896;48.178;11.578;2022-07-23T10:18:59;96093.34;;;27.80;43.81
58092;BME280;43896;48.178;11.578;2022-07-23T10:24:16;96070.34;;;28.20;43.89
58092;BME280;43896;48.178;11.578;2022-07-23T10:26:58;96063.81;;;28.16;44.14
58092;BME280;43896;48.178;11.578;2022-07-23T10:33:09;96080.63;;;28.18;43.92
58092;BME280;43896;48.178;11.578;2022-07-23T10:35:42;96072.19;;;28.14;43.42
58092;BME280;43896;48.178;11.578;2022-07-23T10:38:29;96067.41;;;28.32;45.21
58092;BME280;43896;48.178;11.578;2022-07-23T10:41:06;96065.09;;;28.61;42.88
58092;BME280;43896;48.178;11.578;2022-07-23T10:43:32;96067.69;;;28.35;43.68
58092;BME280;43896;48.178;11.578;2022-07-23T10:46:24;96059.34;;;27.89;44.47
58092;BME280;43896;48.178;11.578;2022-07-23T11:27:03;96047.50;;;27.10;43.29
58092;BME280;43896;48.178;11.578;2022-07-23T11:33:16;96032.44;;;26.87;43.96
58092;BME280;43896;48.178;11.578;2022-07-23T11:36:01;96052.91;;;26.83;43.88
58092;BME280;43896;48.178;11.578;2022-07-23T11:38:30;96046.66;;;26.77;44.81
58092;BME280;43896;48.178;11.578;2022-07-23T11:40:56;96037.41;;;26.68;44.88
58092;BME280;43896;48.178;11.578;2022-07-23T11:43:23;96020.59;;;26.61;45.08
58092;BME280;43896;48.178;11.578;2022-07-23T11:45:52;96026.47;;;26.57;45.22
58092;BME280;43896;48.178;11.578;2022-07-23T11:48:27;96043.19;;;26.54;46.05
58092;BME280;43896;48.178;11.578;2022-07-23T11:50:55;96037.38;;;26.41;45.94
58092;BME280;43896;48.178;11.578;2022-07-23T11:53:25;96043.03;;;26.39;46.72
58092;BME280;43896;48.178;11.578;2022-07-23T11:55:51;96043.53;;;26.36;47.63
58092;BME280;43896;48.178;11.578;2022-07-23T11:58:17;96041.28;;;26.28;47.04
58092;BME280;43896;48.178;11.578;2022-07-23T12:00:55;96042.56;;;25.98;47.41
58092;BME280;43896;48.178;11.578;2022-07-23T12:03:20;96051.78;;;26.02;47.45
58092;BME280;43896;48.178;11.578;2022-07-23T12:05:56;96051.78;;;26.02;48.12
58092;BME280;43896;48.178;11.578;2022-07-23T12:08:22;96037.81;;;26.05;48.36
58092;BME280;43896;48.178;11.578;2022-07-23T12:10:53;96038.47;;;26.17;48.67
58092;BME280;43896;48.178;11.578;2022-07-23T12:13:20;96042.50;;;26.15;48.85
58092;BME280;43896;48.178;11.578;2022-07-23T12:15:59;96042.03;;;26.01;49.89
58092;BME280;43896;48.178;11.578;2022-07-23T12:18:27;96040.50;;;26.05;48.35
58092;BME280;43896;48.178;11.578;2022-07-23T12:20:54;96032.41;;;26.05;49.09
58092;BME280;43896;48.178;11.578;2022-07-23T12:23:24;96047.38;;;25.96;49.80
58092;BME280;43896;48.178;11.578;2022-07-23T12:25:51;96046.78;;;25.94;49.99
58092;BME280;43896;48.178;11.578;2022-07-23T12:28:34;96045.97;;;25.93;49.40
58092;BME280;43896;48.178;11.578;2022-07-23T12:31:02;96056.50;;;25.73;49.01
58092;BME280;43896;48.178;11.578;2022-07-23T12:33:30;96054.19;;;25.81;48.27
58092;BME280;43896;48.178;11.578;2022-07-23T12:36:02;96052.75;;;25.74;48.79
58092;BME280;43896;48.178;11.578;2022-07-23T12:38:37;96040.69;;;25.59;49.43
58092;BME280;43896;48.178;11.578;2022-07-23T12:41:03;96040.25;;;25.68;49.33
58092;BME280;43896;48.178;11.578;2022-07-23T12:43:36;96047.34;;;25.74;48.96
58092;BME280;43896;48.178;11.578;2022-07-23T12:48:29;96053.88;;;25.78;49.70
58092;BME280;43896;48.178;11.578;2022-07-23T12:51:00;96045.22;;;25.76;49.29
58092;BME280;43896;48.178;11.578;2022-07-23T12:53:40;96055.13;;;25.70;49.02
58092;BME280;43896;48.178;11.578;2022-07-23T12:58:52;96056.31;;;25.79;49.31
58092;BME280;43896;48.178;11.578;2022-07-23T13:04:08;96059.25;;;25.78;49.76
58092;BME280;43896;48.178;11.578;2022-07-23T13:06:45;96052.16;;;25.72;49.99
58092;BME280;43896;48.178;11.578;2022-07-23T13:09:16;96048.91;;;25.70;49.75
58092;BME280;43896;48.178;11.578;2022-07-23T13:11:44;96054.53;;;25.68;50.31
58092;BME280;43896;48.178;11.578;2022-07-23T13:14:11;96058.50;;;25.82;49.68
58092;BME280;43896;48.178;11.578;2022-07-23T13:16:37;96058.19;;;25.79;49.95
58092;BME280;43896;48.178;11.578;2022-07-23T13:19:02;96061.53;;;25.86;50.37
58092;BME280;43896;48.178;11.578;2022-07-23T13:21:29;96058.78;;;25.64;50.35
58092;BME280;43896;48.178;11.578;2022-07-23T13:23:55;96064.16;;;25.81;50.37
58092;BME280;43896;48.178;11.578;2022-07-23T13:26:21;96058.50;;;25.82;50.40
58092;BME280;43896;48.178;11.578;2022-07-23T13:28:46;96056.94;;;25.87;51.42
58092;BME280;43896;48.178;11.578;2022-07-23T13:31:12;96063.97;;;25.88;50.46
58092;BME280;43896;48.178;11.578;2022-07-23T13:33:38;96058.50;;;25.82;50.61
58092;BME280;43896;48.178;11.578;2022-07-23T13:36:06;96066.41;;;25.89;49.68
58092;BME280;43896;48.178;11.578;2022-07-23T13:38:32;96061.69;;;25.79;49.86
58092;BME280;43896;48.178;11.578;2022-07-23T13:41:00;96063.44;;;25.91;50.14
58092;BME280;43896;48.178;11.578;2022-07-23T13:43:33;96042.09;;;25.84;50.83
58092;BME280;43896;48.178;11.578;2022-07-23T13:46:02;96033.50;;;25.87;50.68
58092;BME280;43896;48.178;11.578;2022-07-23T13:48:27;96036.50;;;25.91;50.28
58092;BME280;43896;48.178;11.578;2022-07-23T13:50:54;96051.09;;;26.12;50.17
58092;BME280;43896;48.178;11.578;2022-07-23T13:53:22;96039.78;;;25.93;50.04
58092;BME280;43896;48.178;11.578;2022-07-23T13:55:49;96053.69;;;25.85;50.51
58092;BME280;43896;48.178;11.578;2022-07-23T13:58:15;96032.72;;;25.70;51.01
58092;BME280;43896;48.178;11.578;2022-07-23T14:00:44;96028.72;;;25.50;51.08
58092;BME280;43896;48.178;11.578;2022-07-23T14:03:10;96043.44;;;25.64;51.63
58092;BME280;43896;48.178;11.578;2022-07-23T14:05:35;96021.75;;;25.54;52.22
58092;BME280;43896;48.178;11.578;2022-07-23T14:08:02;96047.28;;;25.69;51.92
58092;BME280;43896;48.178;11.578;2022-07-23T14:10:28;96048.34;;;25.68;51.86
58092;BME280;43896;48.178;11.578;2022-07-23T14:12:53;96054.91;;;25.55;51.39
58092;BME280;43896;48.178;11.578;2022-07-23T14:15:22;96048.06;;;25.47;51.69
58092;BME280;43896;48.178;11.578;2022-07-23T14:17:47;96041.97;;;25.35;51.70
58092;BME280;43896;48.178;11.578;2022-07-23T14:20:13;96046.53;;;25.34;52.32
58092;BME280;43896;48.178;11.578;2022-07-23T14:22:39;96040.16;;;25.40;52.44
58092;BME280;43896;48.178;11.578;2022-07-23T14:25:06;96023.03;;;25.30;51.46
58092;BME280;43896;48.178;11.578;2022-07-23T14:27:32;96016.91;;;25.34;51.80
58092;BME280;43896;48.178;11.578;2022-07-23T14:29:58;96039.81;;;25.54;51.82
58092;BME280;43896;48.178;11.578;2022-07-23T14:32:24;96016.31;;;25.49;51.21
58092;BME280;43896;48.178;11.578;2022-07-23T14:34:50;96016.44;;;25.59;51.05
58092;BME280;43896;48.178;11.578;2022-07-23T14:37:15;96024.97;;;25.73;51.16
58092;BME280;43896;48.178;11.578;2022-07-23T14:39:42;96023.50;;;25.82;50.88
58092;BME280;43896;48.178;11.578;2022-07-23T14:42:09;96041.38;;;25.94;50.73